sensor_id;sensor_type;location;lat;lon;timestamp;pressure;altitude;pressure_sealevel;temperature;humidity
75555;BME280;66087;53.126;17.960;2023-05-29T00:01:54;101131.02;;;13.30;49.99
75555;BME280;66087;53.126;17.960;2023-05-29T00:04:21;101128.70;;;13.29;49.55
75555;BME280;66087;53.126;17.960;2023-05-29T00:06:48;101126.50;;;13.30;49.26
75555;BME280;66087;53.126;17.960;2023-05-29T00:09:14;101127.61;;;13.33;49.09
75555;BME280;66087;53.126;17.960;2023-05-29T00:11:41;101123.34;;;13.33;49.19
75555;BME280;66087;53.126;17.960;2023-05-29T00:14:08;101127.40;;;13.32;49.03
75555;BME280;66087;53.126;17.960;2023-05-29T00:16:39;101126.39;;;13.27;49.64
75555;BME280;66087;53.126;17.960;2023-05-29T00:19:06;101131.89;;;13.21;50.10
75555;BME280;66087;53.126;17.960;2023-05-29T00:21:32;101127.13;;;13.15;50.10
75555;BME280;66087;53.126;17.960;2023-05-29T00:24:02;101130.08;;;13.11;51.46
75555;BME280;66087;53.126;17.960;2023-05-29T00:26:28;101125.94;;;13.04;51.26
75555;BME280;66087;53.126;17.960;2023-05-29T00:28:58;101127.13;;;12.99;50.95
75555;BME280;66087;53.126;17.960;2023-05-29T00:31:24;101127.46;;;12.96;50.82
75555;BME280;66087;53.126;17.960;2023-05-29T00:33:53;101128.92;;;12.92;51.53
75555;BME280;66087;53.126;17.960;2023-05-29T00:36:21;101136.36;;;12.85;51.33
75555;BME280;66087;53.126;17.960;2023-05-29T00:38:53;101135.73;;;12.81;51.50
75555;BME280;66087;53.126;17.960;2023-05-29T00:41:20;101138.88;;;12.79;51.68
75555;BME280;66087;53.126;17.960;2023-05-29T00:43:46;101132.89;;;12.77;52.52
75555;BME280;66087;53.126;17.960;2023-05-29T00:46:14;101136.98;;;12.74;52.00
75555;BME280;66087;53.126;17.960;2023-05-29T00:48:42;101141.31;;;12.71;52.87
75555;BME280;66087;53.126;17.960;2023-05-29T00:51:10;101137.09;;;12.67;52.27
75555;BME280;66087;53.126;17.960;2023-05-29T00:53:40;101134.86;;;12.63;52.44
75555;BME280;66087;53.126;17.960;2023-05-29T00:56:10;101134.09;;;12.63;52.49
75555;BME280;66087;53.126;17.960;2023-05-29T00:58:39;101134.39;;;12.65;52.55
75555;BME280;66087;53.126;17.960;2023-05-29T01:01:07;101134.85;;;12.65;52.29
75555;BME280;66087;53.126;17.960;2023-05-29T01:03:34;101134.66;;;12.67;52.69
75555;BME280;66087;53.126;17.960;2023-05-29T01:06:03;101134.78;;;12.64;52.45
75555;BME280;66087;53.126;17.960;2023-05-29T01:08:30;101135.98;;;12.62;53.52
75555;BME280;66087;53.126;17.960;2023-05-29T01:11:08;101128.34;;;12.57;54.08
75555;BME280;66087;53.126;17.960;2023-05-29T01:13:41;101132.87;;;12.50;54.45
75555;BME280;66087;53.126;17.960;2023-05-29T01:16:26;101133.00;;;12.38;54.50
75555;BME280;66087;53.126;17.960;2023-05-29T01:21:57;101141.34;;;12.27;54.60
75555;BME280;66087;53.126;17.960;2023-05-29T01:24:50;101143.02;;;12.22;54.70
75555;BME280;66087;53.126;17.960;2023-05-29T01:27:21;101139.52;;;12.23;54.95
75555;BME280;66087;53.126;17.960;2023-05-29T01:29:52;101139.48;;;12.25;54.57
75555;BME280;66087;53.126;17.960;2023-05-29T01:32:22;101137.11;;;12.28;54.12
75555;BME280;66087;53.126;17.960;2023-05-29T01:34:49;101136.59;;;12.33;54.37
75555;BME280;66087;53.126;17.960;2023-05-29T01:37:15;101135.35;;;12.32;54.92
75555;BME280;66087;53.126;17.960;2023-05-29T01:39:42;101133.20;;;12.29;54.64
75555;BME280;66087;53.126;17.960;2023-05-29T01:42:09;101132.52;;;12.28;54.34
75555;BME280;66087;53.126;17.960;2023-05-29T01:44:37;101136.50;;;12.27;55.62
75555;BME280;66087;53.126;17.960;2023-05-29T01:47:05;101140.77;;;12.21;55.26
75555;BME280;66087;53.126;17.960;2023-05-29T01:49:36;101138.65;;;12.16;55.42
75555;BME280;66087;53.126;17.960;2023-05-29T01:52:04;101140.95;;;12.12;55.28
75555;BME280;66087;53.126;17.960;2023-05-29T01:54:31;101140.33;;;12.07;55.68
75555;BME280;66087;53.126;17.960;2023-05-29T01:56:58;101138.27;;;12.02;56.10
75555;BME280;66087;53.126;17.960;2023-05-29T01:59:26;101139.48;;;11.97;56.70
75555;BME280;66087;53.126;17.960;2023-05-29T02:01:53;101137.06;;;11.90;56.63
75555;BME280;66087;53.126;17.960;2023-05-29T02:04:22;101137.03;;;11.86;55.99
75555;BME280;66087;53.126;17.960;2023-05-29T02:06:48;101142.61;;;11.88;55.86
75555;BME280;66087;53.126;17.960;2023-05-29T02:09:18;101142.60;;;11.90;55.52
75555;BME280;66087;53.126;17.960;2023-05-29T02:11:45;101137.27;;;11.91;56.10
75555;BME280;66087;53.126;17.960;2023-05-29T02:14:13;101137.22;;;11.90;56.02
75555;BME280;66087;53.126;17.960;2023-05-29T02:16:40;101135.70;;;11.86;55.87
75555;BME280;66087;53.126;17.960;2023-05-29T02:19:07;101140.98;;;11.81;55.93
75555;BME280;66087;53.126;17.960;2023-05-29T02:21:34;101138.35;;;11.78;56.23
75555;BME280;66087;53.126;17.960;2023-05-29T02:24:01;101141.88;;;11.76;56.90
75555;BME280;66087;53.126;17.960;2023-05-29T02:26:28;101143.47;;;11.70;56.92
75555;BME280;66087;53.126;17.960;2023-05-29T02:28:55;101143.89;;;11.65;56.38
75555;BME280;66087;53.126;17.960;2023-05-29T02:31:21;101141.30;;;11.61;56.60
75555;BME280;66087;53.126;17.960;2023-05-29T02:33:48;101144.67;;;11.57;56.68
75555;BME280;66087;53.126;17.960;2023-05-29T02:36:15;101145.25;;;11.54;57.21
75555;BME280;66087;53.126;17.960;2023-05-29T02:38:42;101141.90;;;11.53;57.18
75555;BME280;66087;53.126;17.960;2023-05-29T02:41:09;101138.50;;;11.50;57.19
75555;BME280;66087;53.126;17.960;2023-05-29T02:43:35;101136.57;;;11.50;57.17
75555;BME280;66087;53.126;17.960;2023-05-29T02:46:02;101138.91;;;11.48;57.11
75555;BME280;66087;53.126;17.960;2023-05-29T02:48:29;101132.77;;;11.48;57.46
75555;BME280;66087;53.126;17.960;2023-05-29T02:50:55;101132.45;;;11.48;57.61
75555;BME280;66087;53.126;17.960;2023-05-29T02:53:24;101133.77;;;11.51;57.90
75555;BME280;66087;53.126;17.960;2023-05-29T02:55:52;101129.55;;;11.53;57.92
75555;BME280;66087;53.126;17.960;2023-05-29T02:58:21;101127.81;;;11.54;57.76
75555;BME280;66087;53.126;17.960;2023-05-29T03:00:50;101130.61;;;11.55;57.84
75555;BME280;66087;53.126;17.960;2023-05-29T03:03:18;101132.56;;;11.54;57.56
75555;BME280;66087;53.126;17.960;2023-05-29T03:05:45;101132.78;;;11.56;57.68
75555;BME280;66087;53.126;17.960;2023-05-29T03:08:12;101128.52;;;11.55;57.63
75555;BME280;66087;53.126;17.960;2023-05-29T03:10:39;101136.73;;;11.58;57.55
75555;BME280;66087;53.126;17.960;2023-05-29T03:13:06;101141.45;;;11.61;57.79
75555;BME280;66087;53.126;17.960;2023-05-29T03:15:37;101149.30;;;11.62;57.98
75555;BME280;66087;53.126;17.960;2023-05-29T03:18:06;101147.88;;;11.63;58.27
75555;BME280;66087;53.126;17.960;2023-05-29T03:20:33;101151.63;;;11.64;58.73
75555;BME280;66087;53.126;17.960;2023-05-29T03:23:00;101149.14;;;11.63;58.10
75555;BME280;66087;53.126;17.960;2023-05-29T03:25:28;101147.77;;;11.66;58.04
75555;BME280;66087;53.126;17.960;2023-05-29T03:27:55;101148.08;;;11.68;58.19
75555;BME280;66087;53.126;17.960;2023-05-29T03:30:22;101154.52;;;11.69;58.17
75555;BME280;66087;53.126;17.960;2023-05-29T03:32:51;101157.56;;;11.72;57.99
75555;BME280;66087;53.126;17.960;2023-05-29T03:35:18;101158.29;;;11.77;57.93
75555;BME280;66087;53.126;17.960;2023-05-29T03:37:46;101159.13;;;11.80;57.92
75555;BME280;66087;53.126;17.960;2023-05-29T03:40:13;101159.59;;;11.80;58.21
75555;BME280;66087;53.126;17.960;2023-05-29T03:42:40;101164.88;;;11.81;58.27
75555;BME280;66087;53.126;17.960;2023-05-29T03:45:07;101163.30;;;11.82;58.66
75555;BME280;66087;53.126;17.960;2023-05-29T03:47:35;101166.88;;;11.83;58.60
75555;BME280;66087;53.126;17.960;2023-05-29T03:50:03;101161.93;;;11.87;58.86
75555;BME280;66087;53.126;17.960;2023-05-29T03:52:31;101158.63;;;11.91;58.36
75555;BME280;66087;53.126;17.960;2023-05-29T03:54:59;101155.06;;;11.97;58.48
75555;BME280;66087;53.126;17.960;2023-05-29T03:57:26;101153.41;;;11.99;58.77
75555;BME280;66087;53.126;17.960;2023-05-29T03:59:53;101153.38;;;12.02;58.28
75555;BME280;66087;53.126;17.960;2023-05-29T04:02:20;101159.69;;;12.09;58.29
75555;BME280;66087;53.126;17.960;2023-05-29T04:04:47;101163.20;;;12.15;58.11
75555;BME280;66087;53.126;17.960;2023-05-29T04:07:13;101163.68;;;12.21;58.10
75555;BME280;66087;53.126;17.960;2023-05-29T04:09:40;101168.19;;;12.29;57.91
75555;BME280;66087;53.126;17.960;2023-05-29T04:12:07;101169.73;;;12.36;57.99
75555;BME280;66087;53.126;17.960;2023-05-29T04:14:34;101169.96;;;12.44;57.97
75555;BME280;66087;53.126;17.960;2023-05-29T04:17:01;101171.12;;;12.51;58.32
75555;BME280;66087;53.126;17.960;2023-05-29T04:19:27;101168.89;;;12.55;58.09
75555;BME280;66087;53.126;17.960;2023-05-29T04:21:55;101168.02;;;12.62;58.05
75555;BME280;66087;53.126;17.960;2023-05-29T04:24:24;101165.33;;;12.71;57.99
75555;BME280;66087;53.126;17.960;2023-05-29T04:26:57;101163.13;;;12.79;58.23
75555;BME280;66087;53.126;17.960;2023-05-29T04:29:28;101160.48;;;12.84;58.29
75555;BME280;66087;53.126;17.960;2023-05-29T04:31:55;101162.10;;;12.90;58.14
75555;BME280;66087;53.126;17.960;2023-05-29T04:34:22;101159.72;;;12.99;57.98
75555;BME280;66087;53.126;17.960;2023-05-29T04:36:49;101161.02;;;13.06;58.01
75555;BME280;66087;53.126;17.960;2023-05-29T04:39:16;101167.84;;;13.09;58.64
75555;BME280;66087;53.126;17.960;2023-05-29T04:41:43;101172.19;;;13.12;58.32
75555;BME280;66087;53.126;17.960;2023-05-29T04:44:13;101175.32;;;13.17;58.26
75555;BME280;66087;53.126;17.960;2023-05-29T04:46:45;101177.23;;;13.24;58.01
75555;BME280;66087;53.126;17.960;2023-05-29T04:49:13;101173.96;;;13.34;57.75
75555;BME280;66087;53.126;17.960;2023-05-29T04:51:40;101171.91;;;13.46;57.73
75555;BME280;66087;53.126;17.960;2023-05-29T04:54:10;101180.48;;;13.56;57.43
75555;BME280;66087;53.126;17.960;2023-05-29T04:56:39;101180.13;;;13.63;57.41
75555;BME280;66087;53.126;17.960;2023-05-29T04:59:08;101175.34;;;13.70;57.33
75555;BME280;66087;53.126;17.960;2023-05-29T05:01:40;101174.30;;;13.79;57.31
75555;BME280;66087;53.126;17.960;2023-05-29T05:04:09;101170.10;;;13.91;57.08
75555;BME280;66087;53.126;17.960;2023-05-29T05:06:38;101171.93;;;14.02;56.99
75555;BME280;66087;53.126;17.960;2023-05-29T05:09:11;101169.41;;;14.11;56.97
75555;BME280;66087;53.126;17.960;2023-05-29T05:11:41;101169.89;;;14.23;56.89
75555;BME280;66087;53.126;17.960;2023-05-29T05:14:10;101173.58;;;14.30;56.69
75555;BME280;66087;53.126;17.960;2023-05-29T05:16:37;101176.86;;;14.41;56.48
75555;BME280;66087;53.126;17.960;2023-05-29T05:19:04;101177.06;;;14.50;56.39
75555;BME280;66087;53.126;17.960;2023-05-29T05:21:33;101176.72;;;14.58;56.07
75555;BME280;66087;53.126;17.960;2023-05-29T05:24:00;101180.67;;;14.68;56.11
75555;BME280;66087;53.126;17.960;2023-05-29T05:26:27;101181.24;;;14.77;55.95
75555;BME280;66087;53.126;17.960;2023-05-29T05:28:56;101188.10;;;14.86;55.67
75555;BME280;66087;53.126;17.960;2023-05-29T05:31:24;101195.02;;;14.95;55.44
75555;BME280;66087;53.126;17.960;2023-05-29T05:33:52;101188.12;;;15.03;55.36
75555;BME280;66087;53.126;17.960;2023-05-29T05:36:22;101181.73;;;15.12;55.43
75555;BME280;66087;53.126;17.960;2023-05-29T05:38:54;101185.46;;;15.19;55.15
75555;BME280;66087;53.126;17.960;2023-05-29T05:41:28;101181.25;;;15.28;54.98
75555;BME280;66087;53.126;17.960;2023-05-29T05:43:58;101185.48;;;15.39;54.67
75555;BME280;66087;53.126;17.960;2023-05-29T05:46:34;101190.04;;;15.49;54.59
75555;BME280;66087;53.126;17.960;2023-05-29T05:49:02;101191.81;;;15.60;54.34
75555;BME280;66087;53.126;17.960;2023-05-29T05:51:30;101197.46;;;15.72;53.85
75555;BME280;66087;53.126;17.960;2023-05-29T05:54:03;101204.70;;;15.83;53.58
75555;BME280;66087;53.126;17.960;2023-05-29T05:56:30;101199.62;;;15.95;53.44
75555;BME280;66087;53.126;17.960;2023-05-29T05:58:58;101199.08;;;16.06;52.92
75555;BME280;66087;53.126;17.960;2023-05-29T06:01:24;101200.63;;;16.16;52.62
75555;BME280;66087;53.126;17.960;2023-05-29T06:03:51;101205.48;;;16.24;52.18
75555;BME280;66087;53.126;17.960;2023-05-29T06:06:18;101202.56;;;16.28;51.64
75555;BME280;66087;53.126;17.960;2023-05-29T06:08:48;101204.48;;;16.32;51.26
75555;BME280;66087;53.126;17.960;2023-05-29T06:11:16;101203.14;;;16.35;51.07
75555;BME280;66087;53.126;17.960;2023-05-29T06:13:48;101199.55;;;16.41;50.93
75555;BME280;66087;53.126;17.960;2023-05-29T06:16:20;101198.05;;;16.47;50.70
75555;BME280;66087;53.126;17.960;2023-05-29T06:18:47;101196.65;;;16.49;50.53
75555;BME280;66087;53.126;17.960;2023-05-29T06:21:17;101199.90;;;16.53;50.36
75555;BME280;66087;53.126;17.960;2023-05-29T06:23:49;101197.63;;;16.59;50.20
75555;BME280;66087;53.126;17.960;2023-05-29T06:26:15;101196.19;;;16.66;49.41
75555;BME280;66087;53.126;17.960;2023-05-29T06:28:42;101197.05;;;16.69;49.65
75555;BME280;66087;53.126;17.960;2023-05-29T06:31:09;101196.27;;;16.74;49.22
75555;BME280;66087;53.126;17.960;2023-05-29T06:33:36;101195.19;;;16.79;48.87
75555;BME280;66087;53.126;17.960;2023-05-29T06:36:05;101190.98;;;16.86;49.07
75555;BME280;66087;53.126;17.960;2023-05-29T06:38:35;101190.48;;;16.94;49.17
75555;BME280;66087;53.126;17.960;2023-05-29T06:41:09;101195.02;;;17.03;48.59
75555;BME280;66087;53.126;17.960;2023-05-29T06:43:38;101197.11;;;17.09;48.50
75555;BME280;66087;53.126;17.960;2023-05-29T06:46:10;101190.70;;;17.15;48.40
75555;BME280;66087;53.126;17.960;2023-05-29T06:48:37;101193.67;;;17.20;48.41
75555;BME280;66087;53.126;17.960;2023-05-29T06:51:04;101193.23;;;17.24;48.06
75555;BME280;66087;53.126;17.960;2023-05-29T06:54:01;101191.48;;;17.27;48.01
75555;BME280;66087;53.126;17.960;2023-05-29T06:56:28;101195.55;;;17.33;48.13
75555;BME280;66087;53.126;17.960;2023-05-29T06:58:57;101200.67;;;17.38;47.90
75555;BME280;66087;53.126;17.960;2023-05-29T07:01:25;101201.57;;;17.41;47.64
75555;BME280;66087;53.126;17.960;2023-05-29T07:03:59;101202.48;;;17.42;47.74
75555;BME280;66087;53.126;17.960;2023-05-29T07:06:26;101199.19;;;17.47;47.64
75555;BME280;66087;53.126;17.960;2023-05-29T07:08:52;101199.39;;;17.52;47.38
75555;BME280;66087;53.126;17.960;2023-05-29T07:11:19;101205.09;;;17.60;47.31
75555;BME280;66087;53.126;17.960;2023-05-29T07:13:47;101205.41;;;17.66;47.09
75555;BME280;66087;53.126;17.960;2023-05-29T07:16:14;101205.21;;;17.72;46.97
75555;BME280;66087;53.126;17.960;2023-05-29T07:18:42;101212.61;;;17.79;46.93
75555;BME280;66087;53.126;17.960;2023-05-29T07:21:11;101216.70;;;17.83;46.84
75555;BME280;66087;53.126;17.960;2023-05-29T07:23:39;101217.30;;;17.88;46.19
75555;BME280;66087;53.126;17.960;2023-05-29T07:26:06;101217.39;;;17.92;46.44
75555;BME280;66087;53.126;17.960;2023-05-29T07:28:33;101212.73;;;17.96;46.33
75555;BME280;66087;53.126;17.960;2023-05-29T07:30:59;101214.41;;;18.05;46.52
75555;BME280;66087;53.126;17.960;2023-05-29T07:33:26;101212.09;;;18.13;46.34
75555;BME280;66087;53.126;17.960;2023-05-29T07:35:55;101213.77;;;18.20;46.39
75555;BME280;66087;53.126;17.960;2023-05-29T07:38:22;101218.59;;;18.29;46.23
75555;BME280;66087;53.126;17.960;2023-05-29T07:40:48;101227.05;;;18.37;45.92
75555;BME280;66087;53.126;17.960;2023-05-29T07:43:25;101223.43;;;18.43;45.73
75555;BME280;66087;53.126;17.960;2023-05-29T07:45:56;101232.66;;;18.49;45.05
75555;BME280;66087;53.126;17.960;2023-05-29T07:48:23;101238.52;;;18.51;44.88
75555;BME280;66087;53.126;17.960;2023-05-29T07:50:52;101239.16;;;18.50;44.73
75555;BME280;66087;53.126;17.960;2023-05-29T07:53:19;101232.91;;;18.51;44.73
75555;BME280;66087;53.126;17.960;2023-05-29T07:56:09;101235.70;;;18.64;44.80
75555;BME280;66087;53.126;17.960;2023-05-29T07:58:52;101229.84;;;18.73;44.63
75555;BME280;66087;53.126;17.960;2023-05-29T08:01:23;101232.23;;;18.89;44.55
75555;BME280;66087;53.126;17.960;2023-05-29T08:03:50;101237.74;;;19.02;44.34
75555;BME280;66087;53.126;17.960;2023-05-29T08:06:20;101236.20;;;19.05;44.26
75555;BME280;66087;53.126;17.960;2023-05-29T08:08:47;101240.02;;;19.10;44.54
75555;BME280;66087;53.126;17.960;2023-05-29T08:11:14;101239.05;;;19.12;44.42
75555;BME280;66087;53.126;17.960;2023-05-29T08:13:43;101238.86;;;19.11;44.44
75555;BME280;66087;53.126;17.960;2023-05-29T08:16:12;101244.41;;;19.05;44.31
75555;BME280;66087;53.126;17.960;2023-05-29T08:18:40;101241.24;;;19.03;44.01
75555;BME280;66087;53.126;17.960;2023-05-29T08:21:08;101239.75;;;19.04;44.28
75555;BME280;66087;53.126;17.960;2023-05-29T08:23:35;101237.07;;;19.13;44.07
75555;BME280;66087;53.126;17.960;2023-05-29T08:26:03;101249.34;;;19.19;44.13
75555;BME280;66087;53.126;17.960;2023-05-29T08:28:40;101247.08;;;19.26;43.68
75555;BME280;66087;53.126;17.960;2023-05-29T08:31:07;101247.02;;;19.30;42.93
75555;BME280;66087;53.126;17.960;2023-05-29T08:33:34;101242.96;;;19.33;42.77
75555;BME280;66087;53.126;17.960;2023-05-29T08:36:01;101247.34;;;19.38;43.08
75555;BME280;66087;53.126;17.960;2023-05-29T08:38:27;101254.96;;;19.44;42.80
75555;BME280;66087;53.126;17.960;2023-05-29T08:40:56;101251.71;;;19.46;42.67
75555;BME280;66087;53.126;17.960;2023-05-29T08:43:30;101248.02;;;19.49;42.45
75555;BME280;66087;53.126;17.960;2023-05-29T08:46:01;101248.10;;;19.51;42.33
75555;BME280;66087;53.126;17.960;2023-05-29T08:48:30;101250.35;;;19.52;42.41
75555;BME280;66087;53.126;17.960;2023-05-29T08:50:58;101250.41;;;19.60;42.46
75555;BME280;66087;53.126;17.960;2023-05-29T08:53:28;101250.41;;;19.72;42.23
75555;BME280;66087;53.126;17.960;2023-05-29T08:55:55;101254.02;;;19.92;42.05
75555;BME280;66087;53.126;17.960;2023-05-29T08:58:26;101252.48;;;20.04;41.72
75555;BME280;66087;53.126;17.960;2023-05-29T09:00:52;101253.47;;;20.19;41.83
75555;BME280;66087;53.126;17.960;2023-05-29T09:03:19;101251.52;;;20.33;41.06
75555;BME280;66087;53.126;17.960;2023-05-29T09:05:49;101255.31;;;20.43;40.66
75555;BME280;66087;53.126;17.960;2023-05-29T09:08:16;101255.40;;;20.43;40.35
75555;BME280;66087;53.126;17.960;2023-05-29T09:10:44;101261.09;;;20.32;40.16
75555;BME280;66087;53.126;17.960;2023-05-29T09:13:12;101270.17;;;20.25;39.92
75555;BME280;66087;53.126;17.960;2023-05-29T09:15:42;101264.48;;;20.23;40.05
75555;BME280;66087;53.126;17.960;2023-05-29T09:18:10;101267.01;;;20.24;39.51
75555;BME280;66087;53.126;17.960;2023-05-29T09:20:36;101263.07;;;20.23;39.96
75555;BME280;66087;53.126;17.960;2023-05-29T09:23:05;101270.57;;;20.23;39.62
75555;BME280;66087;53.126;17.960;2023-05-29T09:25:33;101272.27;;;20.21;39.55
75555;BME280;66087;53.126;17.960;2023-05-29T09:28:03;101275.93;;;20.21;39.41
75555;BME280;66087;53.126;17.960;2023-05-29T09:30:41;101272.98;;;20.20;39.24
75555;BME280;66087;53.126;17.960;2023-05-29T09:33:11;101265.48;;;20.17;39.57
75555;BME280;66087;53.126;17.960;2023-05-29T09:35:40;101265.79;;;20.23;39.78
75555;BME280;66087;53.126;17.960;2023-05-29T09:38:09;101266.73;;;20.31;39.73
75555;BME280;66087;53.126;17.960;2023-05-29T09:40:39;101265.13;;;20.38;39.49
75555;BME280;66087;53.126;17.960;2023-05-29T09:43:12;101256.98;;;20.44;39.09
75555;BME280;66087;53.126;17.960;2023-05-29T09:45:41;101255.86;;;20.52;38.84
75555;BME280;66087;53.126;17.960;2023-05-29T09:48:15;101253.80;;;20.64;38.75
75555;BME280;66087;53.126;17.960;2023-05-29T09:50:43;101250.44;;;20.91;38.32
75555;BME280;66087;53.126;17.960;2023-05-29T09:53:18;101249.21;;;21.18;37.66
75555;BME280;66087;53.126;17.960;2023-05-29T09:55:47;101244.45;;;21.39;37.69
75555;BME280;66087;53.126;17.960;2023-05-29T09:58:20;101243.49;;;21.56;37.15
75555;BME280;66087;53.126;17.960;2023-05-29T10:00:48;101242.73;;;21.65;36.95
75555;BME280;66087;53.126;17.960;2023-05-29T10:03:18;101244.89;;;21.80;36.77
75555;BME280;66087;53.126;17.960;2023-05-29T10:05:55;101242.71;;;21.92;36.43
75555;BME280;66087;53.126;17.960;2023-05-29T10:08:25;101240.10;;;22.07;36.61
75555;BME280;66087;53.126;17.960;2023-05-29T10:11:02;101237.73;;;22.29;36.17
75555;BME280;66087;53.126;17.960;2023-05-29T10:13:34;101245.35;;;22.55;36.07
75555;BME280;66087;53.126;17.960;2023-05-29T10:16:04;101239.39;;;22.71;35.63
75555;BME280;66087;53.126;17.960;2023-05-29T10:18:39;101238.89;;;22.85;35.60
75555;BME280;66087;53.126;17.960;2023-05-29T10:21:11;101249.52;;;22.87;34.97
75555;BME280;66087;53.126;17.960;2023-05-29T10:23:42;101245.66;;;22.63;34.67
75555;BME280;66087;53.126;17.960;2023-05-29T10:26:12;101241.44;;;22.47;34.71
75555;BME280;66087;53.126;17.960;2023-05-29T10:28:49;101240.75;;;22.60;34.31
75555;BME280;66087;53.126;17.960;2023-05-29T10:31:22;101239.14;;;22.73;33.96
75555;BME280;66087;53.126;17.960;2023-05-29T10:34:07;101242.14;;;22.81;33.07
75555;BME280;66087;53.126;17.960;2023-05-29T10:36:42;101233.86;;;22.91;33.10
75555;BME280;66087;53.126;17.960;2023-05-29T10:39:12;101232.75;;;23.04;32.96
75555;BME280;66087;53.126;17.960;2023-05-29T10:41:39;101239.34;;;23.22;33.20
75555;BME280;66087;53.126;17.960;2023-05-29T10:44:38;101239.98;;;23.41;32.91
75555;BME280;66087;53.126;17.960;2023-05-29T10:47:05;101247.83;;;23.52;32.58
75555;BME280;66087;53.126;17.960;2023-05-29T10:49:32;101249.94;;;23.39;32.50
75555;BME280;66087;53.126;17.960;2023-05-29T10:52:03;101250.58;;;23.28;32.36
75555;BME280;66087;53.126;17.960;2023-05-29T10:54:40;101246.27;;;23.16;32.28
75555;BME280;66087;53.126;17.960;2023-05-29T10:57:08;101235.89;;;23.07;32.04
75555;BME280;66087;53.126;17.960;2023-05-29T10:59:36;101231.70;;;23.01;32.04
75555;BME280;66087;53.126;17.960;2023-05-29T11:02:04;101231.15;;;23.17;31.44
75555;BME280;66087;53.126;17.960;2023-05-29T11:04:33;101231.52;;;23.56;31.25
75555;BME280;66087;53.126;17.960;2023-05-29T11:07:00;101234.28;;;23.89;31.18
75555;BME280;66087;53.126;17.960;2023-05-29T11:09:33;101234.70;;;23.91;30.99
75555;BME280;66087;53.126;17.960;2023-05-29T11:15:07;101230.55;;;23.70;30.86
75555;BME280;66087;53.126;17.960;2023-05-29T11:17:47;101230.27;;;23.66;30.78
75555;BME280;66087;53.126;17.960;2023-05-29T11:20:42;101217.81;;;23.64;30.03
75555;BME280;66087;53.126;17.960;2023-05-29T11:23:16;101220.61;;;23.70;30.22
75555;BME280;66087;53.126;17.960;2023-05-29T11:25:45;101222.73;;;23.74;30.11
75555;BME280;66087;53.126;17.960;2023-05-29T11:28:13;101211.56;;;23.90;29.75
75555;BME280;66087;53.126;17.960;2023-05-29T11:30:44;101209.61;;;24.20;29.47
75555;BME280;66087;53.126;17.960;2023-05-29T11:33:27;101213.49;;;24.60;29.42
75555;BME280;66087;53.126;17.960;2023-05-29T11:35:57;101205.80;;;24.86;29.04
75555;BME280;66087;53.126;17.960;2023-05-29T11:38:27;101208.69;;;24.86;29.24
75555;BME280;66087;53.126;17.960;2023-05-29T11:40:55;101211.98;;;24.94;28.96
75555;BME280;66087;53.126;17.960;2023-05-29T11:43:22;101207.53;;;24.94;28.77
75555;BME280;66087;53.126;17.960;2023-05-29T11:45:49;101207.86;;;25.04;28.79
75555;BME280;66087;53.126;17.960;2023-05-29T11:48:16;101204.63;;;25.28;28.07
75555;BME280;66087;53.126;17.960;2023-05-29T11:50:45;101211.84;;;25.48;27.38
75555;BME280;66087;53.126;17.960;2023-05-29T11:53:12;101197.79;;;25.51;27.15
75555;BME280;66087;53.126;17.960;2023-05-29T11:55:39;101204.13;;;25.63;27.28
75555;BME280;66087;53.126;17.960;2023-05-29T11:58:06;101211.99;;;25.66;27.26
75555;BME280;66087;53.126;17.960;2023-05-29T12:00:36;101203.03;;;25.57;26.91
75555;BME280;66087;53.126;17.960;2023-05-29T12:03:04;101200.10;;;25.65;27.27
75555;BME280;66087;53.126;17.960;2023-05-29T12:05:44;101197.09;;;26.03;26.89
75555;BME280;66087;53.126;17.960;2023-05-29T12:08:12;101195.64;;;26.53;26.85
75555;BME280;66087;53.126;17.960;2023-05-29T12:10:47;101202.38;;;26.73;26.25
75555;BME280;66087;53.126;17.960;2023-05-29T12:13:15;101201.13;;;26.71;26.24
75555;BME280;66087;53.126;17.960;2023-05-29T12:15:45;101195.66;;;26.82;26.26
75555;BME280;66087;53.126;17.960;2023-05-29T12:18:14;101193.07;;;26.87;25.96
75555;BME280;66087;53.126;17.960;2023-05-29T12:20:41;101195.96;;;26.87;25.81
75555;BME280;66087;53.126;17.960;2023-05-29T12:23:08;101192.26;;;26.90;25.38
75555;BME280;66087;53.126;17.960;2023-05-29T12:25:35;101192.98;;;26.83;25.55
75555;BME280;66087;53.126;17.960;2023-05-29T12:28:08;101191.95;;;26.89;25.48
75555;BME280;66087;53.126;17.960;2023-05-29T12:30:38;101191.23;;;27.00;25.25
75555;BME280;66087;53.126;17.960;2023-05-29T12:33:07;101193.05;;;26.88;24.84
75555;BME280;66087;53.126;17.960;2023-05-29T12:35:36;101193.00;;;26.78;25.06
75555;BME280;66087;53.126;17.960;2023-05-29T12:38:05;101195.52;;;26.77;25.02
75555;BME280;66087;53.126;17.960;2023-05-29T12:40:35;101187.12;;;26.79;24.94
75555;BME280;66087;53.126;17.960;2023-05-29T12:43:06;101188.73;;;27.37;24.63
75555;BME280;66087;53.126;17.960;2023-05-29T12:45:37;101192.96;;;27.86;23.95
75555;BME280;66087;53.126;17.960;2023-05-29T12:48:06;101200.02;;;28.31;23.62
75555;BME280;66087;53.126;17.960;2023-05-29T12:50:35;101188.90;;;28.55;23.23
75555;BME280;66087;53.126;17.960;2023-05-29T12:53:12;101191.13;;;29.10;23.00
75555;BME280;66087;53.126;17.960;2023-05-29T12:55:42;101187.31;;;29.86;22.24
75555;BME280;66087;53.126;17.960;2023-05-29T12:58:10;101188.69;;;30.63;22.45